createdAt,value
2018-12-27T00:02:16.545Z,4.42
2018-12-27T00:04:46.027Z,4.40
2018-12-27T00:07:15.462Z,4.37
2018-12-27T00:09:44.919Z,4.37
2018-12-27T00:12:14.342Z,4.24
2018-12-27T00:14:44.255Z,4.14
2018-12-27T00:17:13.760Z,4.06
2018-12-27T00:19:43.248Z,4.01
2018-12-27T00:22:12.807Z,3.91
2018-12-27T00:24:42.342Z,3.85
2018-12-27T00:27:11.869Z,3.87
2018-12-27T00:29:41.248Z,3.85
2018-12-27T00:32:11.082Z,3.83
2018-12-27T00:34:40.905Z,3.78
2018-12-27T00:37:10.703Z,3.67
2018-12-27T00:39:40.495Z,3.64
2018-12-27T00:42:10.269Z,3.64
2018-12-27T00:44:40.075Z,3.61
2018-12-27T00:47:09.905Z,3.58
2018-12-27T00:49:39.802Z,3.60
2018-12-27T00:52:09.653Z,3.53
2018-12-27T00:54:39.435Z,3.51
2018-12-27T00:57:09.278Z,3.48
2018-12-27T00:59:38.998Z,3.51
2018-12-27T01:02:08.820Z,3.49
2018-12-27T01:04:38.630Z,3.48
2018-12-27T01:07:08.416Z,3.43
2018-12-27T01:09:38.166Z,3.40
2018-12-27T01:12:08.024Z,3.55
2018-12-27T01:14:37.840Z,3.53
2018-12-27T01:17:07.594Z,3.44
2018-12-27T01:19:37.446Z,3.49
2018-12-27T01:22:07.192Z,3.52
2018-12-27T01:24:36.906Z,3.45
2018-12-27T01:27:06.737Z,3.43
2018-12-27T01:29:36.510Z,3.49
2018-12-27T01:32:06.268Z,3.49
2018-12-27T01:34:36.122Z,3.50
2018-12-27T01:37:05.949Z,3.47
2018-12-27T01:39:35.740Z,3.44
2018-12-27T01:42:05.596Z,3.39
2018-12-27T01:44:35.416Z,3.40
2018-12-27T01:47:05.144Z,3.43
2018-12-27T01:49:34.893Z,3.37
2018-12-27T01:52:04.758Z,3.33
2018-12-27T01:54:34.542Z,3.34
2018-12-27T01:57:04.309Z,3.25
2018-12-27T01:59:34.157Z,3.24
2018-12-27T02:02:03.915Z,3.28
2018-12-27T02:04:33.770Z,3.21
2018-12-27T02:07:03.607Z,3.20
2018-12-27T02:09:33.463Z,3.12
2018-12-27T02:12:03.240Z,3.15
2018-12-27T02:14:33.014Z,3.23
2018-12-27T02:17:02.839Z,3.29
2018-12-27T02:19:32.560Z,3.33
2018-12-27T02:22:02.474Z,3.19
2018-12-27T02:24:32.289Z,3.20
2018-12-27T02:27:02.090Z,3.16
2018-12-27T02:29:31.885Z,3.26
2018-12-27T02:32:01.716Z,3.24
2018-12-27T02:34:31.573Z,3.09
2018-12-27T02:37:01.355Z,3.03
2018-12-27T02:39:31.176Z,3.01
2018-12-27T02:42:00.940Z,3.08
2018-12-27T02:44:30.639Z,3.13
2018-12-27T02:47:00.468Z,3.02
2018-12-27T02:49:30.333Z,3.03
2018-12-27T02:52:00.080Z,3.12
2018-12-27T02:54:29.836Z,3.26
2018-12-27T02:56:59.687Z,3.39
2018-12-27T02:59:29.445Z,3.51
2018-12-27T03:01:59.351Z,3.67
2018-12-27T03:04:29.184Z,3.73
2018-12-27T03:06:58.900Z,3.77
2018-12-27T03:09:28.629Z,3.87
2018-12-27T03:11:58.584Z,3.91
2018-12-27T03:14:28.438Z,3.97
2018-12-27T03:16:58.186Z,4.00
2018-12-27T03:19:28.052Z,3.99
2018-12-27T03:21:57.812Z,4.00
2018-12-27T03:24:27.579Z,4.07
2018-12-27T03:26:57.368Z,4.07
2018-12-27T03:29:27.159Z,4.10
2018-12-27T03:31:56.926Z,4.07
2018-12-27T03:34:26.733Z,4.11
2018-12-27T03:36:56.555Z,4.15
2018-12-27T03:39:26.360Z,4.16
2018-12-27T03:41:56.176Z,4.20
2018-12-27T03:44:25.967Z,4.18
2018-12-27T03:46:55.745Z,4.18
2018-12-27T03:49:25.474Z,4.18
2018-12-27T03:51:55.311Z,4.20
2018-12-27T03:54:25.165Z,4.27
2018-12-27T03:56:54.938Z,4.23
2018-12-27T03:59:24.768Z,4.20
2018-12-27T04:01:54.551Z,4.22
2018-12-27T04:04:24.317Z,4.24
2018-12-27T04:06:54.162Z,4.21
2018-12-27T04:09:24.083Z,4.15
2018-12-27T04:11:53.896Z,4.19
2018-12-27T04:14:23.662Z,4.12
2018-12-27T04:16:53.091Z,4.12
2018-12-27T04:19:22.532Z,4.17
2018-12-27T04:21:52.116Z,4.14
2018-12-27T04:24:21.684Z,4.14
2018-12-27T04:26:51.111Z,4.13
2018-12-27T04:29:20.527Z,4.15
2018-12-27T04:31:50.050Z,4.17
2018-12-27T04:34:19.683Z,4.16
2018-12-27T04:36:49.159Z,4.11
2018-12-27T04:39:18.655Z,4.14
2018-12-27T04:41:48.111Z,4.18
2018-12-27T04:44:17.532Z,4.13
2018-12-27T04:46:47.071Z,4.16
2018-12-27T04:49:16.584Z,4.14
2018-12-27T04:51:46.023Z,4.15
2018-12-27T04:54:15.416Z,4.12
2018-12-27T04:56:44.903Z,4.11
2018-12-27T04:59:14.480Z,4.15
2018-12-27T05:01:43.988Z,4.13
2018-12-27T05:04:18.023Z,4.11
2018-12-27T05:06:44.623Z,4.07
2018-12-27T05:09:14.154Z,4.00
2018-12-27T05:11:43.633Z,3.94
2018-12-27T05:14:13.107Z,3.84
2018-12-27T05:16:42.489Z,3.73
2018-12-27T05:19:11.985Z,3.66
2018-12-27T05:21:41.429Z,3.61
2018-12-27T05:24:10.945Z,3.62
2018-12-27T05:26:40.373Z,3.49
2018-12-27T05:29:09.863Z,3.44
2018-12-27T05:31:39.296Z,3.33
2018-12-27T05:34:08.710Z,3.26
2018-12-27T05:36:38.221Z,3.20
2018-12-27T05:39:07.739Z,3.22
2018-12-27T05:41:37.240Z,3.17
2018-12-27T05:44:06.741Z,3.19
2018-12-27T05:46:36.303Z,3.08
2018-12-27T05:49:05.722Z,3.04
2018-12-27T05:51:35.332Z,2.94
2018-12-27T05:54:04.813Z,3.08
2018-12-27T05:56:34.226Z,3.02
2018-12-27T05:59:03.721Z,2.94
2018-12-27T06:01:33.088Z,2.89
2018-12-27T06:04:02.536Z,2.90
2018-12-27T06:06:32.044Z,2.87
2018-12-27T06:09:01.579Z,2.87
2018-12-27T06:11:31.022Z,3.00
2018-12-27T06:14:00.552Z,3.09
2018-12-27T06:16:30.007Z,3.10
2018-12-27T06:18:59.379Z,3.13
2018-12-27T06:21:28.883Z,3.15
2018-12-27T06:23:58.366Z,3.13
2018-12-27T06:26:27.819Z,3.13
2018-12-27T06:28:57.247Z,3.13
2018-12-27T06:31:26.768Z,3.22
2018-12-27T06:33:56.247Z,3.23
2018-12-27T06:36:25.678Z,3.33
2018-12-27T06:38:55.166Z,3.30
2018-12-27T06:41:24.673Z,3.26
2018-12-27T06:43:54.225Z,3.28
2018-12-27T06:46:23.696Z,3.35
2018-12-27T06:48:53.147Z,3.38
2018-12-27T06:51:22.582Z,3.35
2018-12-27T06:53:52.022Z,3.39
2018-12-27T06:56:21.535Z,3.48
2018-12-27T06:58:51.057Z,3.55
2018-12-27T07:01:20.562Z,3.40
2018-12-27T07:03:50.080Z,3.71
2018-12-27T07:06:19.539Z,3.76
2018-12-27T07:08:49.040Z,3.80
2018-12-27T07:11:18.551Z,3.86
2018-12-27T07:13:47.995Z,3.89
2018-12-27T07:16:17.458Z,3.97
2018-12-27T07:18:46.904Z,3.95
2018-12-27T07:21:16.340Z,3.97
2018-12-27T07:23:45.899Z,4.08
2018-12-27T07:26:15.400Z,4.09
2018-12-27T07:28:44.854Z,4.13
2018-12-27T07:31:14.298Z,4.28
2018-12-27T07:33:43.776Z,4.33
2018-12-27T07:36:13.335Z,4.38
2018-12-27T07:38:42.715Z,4.40
2018-12-27T07:41:12.224Z,4.45
2018-12-27T07:43:41.701Z,4.51
2018-12-27T07:46:11.285Z,4.58
2018-12-27T07:48:40.697Z,4.60
2018-12-27T07:51:10.183Z,4.64
2018-12-27T07:53:39.828Z,4.75
2018-12-27T07:56:10.153Z,4.84
2018-12-27T07:58:39.794Z,4.95
2018-12-27T08:01:09.503Z,5.08
2018-12-27T08:03:38.993Z,5.14
2018-12-27T08:06:08.615Z,5.08
2018-12-27T08:08:38.250Z,5.12
2018-12-27T08:11:07.719Z,5.16
2018-12-27T08:13:37.261Z,5.28
2018-12-27T08:16:06.732Z,5.29
2018-12-27T08:18:36.310Z,5.33
2018-12-27T08:21:05.817Z,5.46
2018-12-27T08:23:35.249Z,5.57
2018-12-27T08:26:04.803Z,5.61
2018-12-27T08:28:34.315Z,5.56
2018-12-27T08:31:03.806Z,5.63
2018-12-27T08:33:33.181Z,5.78
2018-12-27T08:36:02.649Z,5.91
2018-12-27T08:38:32.173Z,6.07
2018-12-27T08:41:01.775Z,6.21
2018-12-27T08:43:31.398Z,6.37
2018-12-27T08:46:00.893Z,6.51
2018-12-27T08:48:30.488Z,6.66
2018-12-27T08:50:59.904Z,6.97
2018-12-27T08:53:29.432Z,7.12
2018-12-27T08:55:59.017Z,7.50
2018-12-27T08:58:28.561Z,7.95
2018-12-27T09:00:57.996Z,8.28
2018-12-27T09:03:27.423Z,7.86
2018-12-27T09:05:56.936Z,7.83
2018-12-27T09:08:26.553Z,7.56
2018-12-27T09:10:56.023Z,7.42
2018-12-27T09:13:25.456Z,7.36
2018-12-27T09:15:54.996Z,7.40
2018-12-27T09:18:24.585Z,7.35
2018-12-27T09:20:54.093Z,7.48
2018-12-27T09:23:23.609Z,7.46
2018-12-27T09:25:53.063Z,7.56
2018-12-27T09:28:22.603Z,7.70
2018-12-27T09:30:52.093Z,7.40
2018-12-27T09:33:21.588Z,7.43
2018-12-27T09:35:51.098Z,7.37
2018-12-27T09:38:20.546Z,7.20
2018-12-27T09:40:50.038Z,7.26
2018-12-27T09:43:19.714Z,7.37
2018-12-27T09:45:49.309Z,7.41
2018-12-27T09:48:18.836Z,7.45
2018-12-27T09:50:48.304Z,7.50
2018-12-27T09:53:17.894Z,7.64
2018-12-27T09:55:47.302Z,7.61
2018-12-27T09:58:16.729Z,7.60
2018-12-27T10:00:46.242Z,7.58
2018-12-27T10:03:15.740Z,7.57
2018-12-27T10:05:45.472Z,7.65
2018-12-27T10:08:14.868Z,7.72
2018-12-27T10:10:44.366Z,7.80
2018-12-27T10:13:13.862Z,7.66
2018-12-27T10:15:43.242Z,7.77
2018-12-27T10:18:12.646Z,7.67
2018-12-27T10:20:42.139Z,7.78
2018-12-27T10:23:11.777Z,7.83
2018-12-27T10:25:41.399Z,7.84
2018-12-27T10:28:10.926Z,7.95
2018-12-27T10:30:40.452Z,8.02
2018-12-27T10:33:09.946Z,8.26
2018-12-27T10:35:41.278Z,8.07
2018-12-27T10:38:10.888Z,8.27
2018-12-27T10:40:40.403Z,8.54
2018-12-27T10:43:10.030Z,8.38
2018-12-27T10:45:39.511Z,8.24
2018-12-27T10:48:09.453Z,8.35
2018-12-27T10:50:38.856Z,9.04
2018-12-27T10:53:08.263Z,9.66
2018-12-27T10:55:37.755Z,10.18
2018-12-27T10:58:07.331Z,10.62
2018-12-27T11:00:36.745Z,10.84
2018-12-27T11:03:06.182Z,11.13
2018-12-27T11:05:35.669Z,11.51
2018-12-27T11:08:05.142Z,11.10
2018-12-27T11:10:34.749Z,10.26
2018-12-27T11:13:04.183Z,10.87
2018-12-27T11:15:33.784Z,11.11
2018-12-27T11:18:03.404Z,11.18
2018-12-27T11:20:33.202Z,10.54
2018-12-27T11:23:02.660Z,10.15
2018-12-27T11:25:32.188Z,10.08
2018-12-27T11:28:01.849Z,10.06
2018-12-27T11:30:31.296Z,9.92
2018-12-27T11:33:00.751Z,9.97
2018-12-27T11:35:30.376Z,9.55
2018-12-27T11:37:59.905Z,10.01
2018-12-27T11:40:29.365Z,10.59
2018-12-27T11:42:58.807Z,10.72
2018-12-27T11:45:28.353Z,11.24
2018-12-27T11:47:57.815Z,11.25
2018-12-27T11:50:27.205Z,11.26
2018-12-27T11:52:56.600Z,10.57
2018-12-27T11:55:26.055Z,9.65
2018-12-27T11:57:55.599Z,8.96
2018-12-27T12:00:25.121Z,8.73
2018-12-27T12:02:54.569Z,8.37
2018-12-27T12:05:24.171Z,8.08
2018-12-27T12:07:53.734Z,8.00
2018-12-27T12:10:23.261Z,8.18
2018-12-27T12:12:52.863Z,8.31
2018-12-27T12:15:22.317Z,8.35
2018-12-27T12:17:51.778Z,8.34
2018-12-27T12:20:21.388Z,8.32
2018-12-27T12:22:51.105Z,8.22
2018-12-27T12:25:20.838Z,8.17
2018-12-27T12:27:50.306Z,8.16
2018-12-27T12:30:19.836Z,8.15
2018-12-27T12:32:49.334Z,8.26
2018-12-27T12:35:18.816Z,8.32
2018-12-27T12:37:48.601Z,8.27
2018-12-27T12:40:18.207Z,8.41
2018-12-27T12:42:47.655Z,8.31
2018-12-27T12:45:17.225Z,8.42
2018-12-27T12:47:46.760Z,8.38
2018-12-27T12:50:16.414Z,8.43
2018-12-27T12:52:45.940Z,8.57
2018-12-27T12:55:15.424Z,8.65
2018-12-27T12:57:44.907Z,8.78
2018-12-27T13:00:14.436Z,8.85
2018-12-27T13:02:44.064Z,8.74
2018-12-27T13:05:13.459Z,8.85
2018-12-27T13:07:42.968Z,8.57
2018-12-27T13:10:12.490Z,8.56
2018-12-27T13:12:42.031Z,8.40
2018-12-27T13:15:11.460Z,8.23
2018-12-27T13:17:40.982Z,8.22
2018-12-27T13:20:10.530Z,8.10
2018-12-27T13:22:40.025Z,8.08
2018-12-27T13:25:09.494Z,8.04
2018-12-27T13:27:39.088Z,7.97
2018-12-27T13:30:09.092Z,7.97
2018-12-27T13:32:38.614Z,7.78
2018-12-27T13:35:08.103Z,7.89
2018-12-27T13:37:37.821Z,7.91
2018-12-27T13:40:07.517Z,7.80
2018-12-27T13:42:36.954Z,7.78
2018-12-27T13:45:07.051Z,7.78
2018-12-27T13:47:36.680Z,7.73
2018-12-27T13:50:06.257Z,7.65
2018-12-27T13:52:35.662Z,7.59
2018-12-27T13:55:05.324Z,7.48
2018-12-27T13:57:34.774Z,7.41
2018-12-27T14:00:04.714Z,7.35
2018-12-27T14:02:34.124Z,7.26
2018-12-27T14:05:03.645Z,7.26
2018-12-27T14:07:33.408Z,7.20
2018-12-27T14:10:02.856Z,7.12
2018-12-27T14:12:32.435Z,7.06
2018-12-27T14:15:01.957Z,6.96
2018-12-27T14:17:31.491Z,6.90
2018-12-27T14:20:00.985Z,6.88
2018-12-27T14:22:30.872Z,6.84
2018-12-27T14:25:00.412Z,6.73
2018-12-27T14:27:29.923Z,6.67
2018-12-27T14:29:59.342Z,6.55
2018-12-27T14:32:28.786Z,6.53
2018-12-27T14:34:58.291Z,6.47
2018-12-27T14:37:27.769Z,6.36
2018-12-27T14:39:57.222Z,6.27
2018-12-27T14:42:26.766Z,6.16
2018-12-27T14:44:56.551Z,6.04
2018-12-27T14:47:25.990Z,5.91
2018-12-27T14:49:55.593Z,5.83
2018-12-27T14:52:25.337Z,5.82
2018-12-27T14:54:54.859Z,5.74
2018-12-27T14:57:24.322Z,5.68
2018-12-27T14:59:53.850Z,5.64
2018-12-27T15:02:23.460Z,5.53
2018-12-27T15:04:52.932Z,5.51
2018-12-27T15:07:22.466Z,5.48
2018-12-27T15:09:52.004Z,5.43
2018-12-27T15:12:21.528Z,5.39
2018-12-27T15:14:51.022Z,5.44
2018-12-27T15:17:20.488Z,5.35
2018-12-27T15:19:50.092Z,5.46
2018-12-27T15:22:19.700Z,5.44
2018-12-27T15:24:49.137Z,5.44
2018-12-27T15:27:18.594Z,5.36
2018-12-27T15:29:48.229Z,5.34
2018-12-27T15:32:17.755Z,5.30
2018-12-27T15:34:47.276Z,5.20
2018-12-27T15:37:16.679Z,5.17
2018-12-27T15:39:46.183Z,5.07
2018-12-27T15:42:15.791Z,5.20
2018-12-27T15:44:45.178Z,5.26
2018-12-27T15:47:14.614Z,5.27
2018-12-27T15:49:44.065Z,5.15
2018-12-27T15:52:13.578Z,5.16
2018-12-27T15:54:44.312Z,5.14
2018-12-27T15:57:15.925Z,5.09
2018-12-27T15:59:47.412Z,5.07
2018-12-27T16:02:17.331Z,5.00
2018-12-27T16:04:46.744Z,4.89
2018-12-27T16:07:16.348Z,4.82
2018-12-27T16:09:45.837Z,4.83
2018-12-27T16:12:15.446Z,4.80
2018-12-27T16:14:44.854Z,4.74
2018-12-27T16:17:14.406Z,4.70
2018-12-27T16:19:43.857Z,4.73
2018-12-27T16:22:13.559Z,4.70
2018-12-27T16:24:43.921Z,4.70
2018-12-27T16:27:13.355Z,4.69
2018-12-27T16:29:42.817Z,4.68
2018-12-27T16:32:12.358Z,4.68
2018-12-27T16:34:41.768Z,4.64
2018-12-27T16:37:11.239Z,4.65
2018-12-27T16:39:40.829Z,4.63
2018-12-27T16:42:11.305Z,4.63
2018-12-27T16:44:40.806Z,4.65
2018-12-27T16:47:10.241Z,4.55
2018-12-27T16:49:39.780Z,4.48
2018-12-27T16:52:09.394Z,4.46
2018-12-27T16:54:39.041Z,4.39
2018-12-27T16:57:08.610Z,4.32
2018-12-27T16:59:38.217Z,4.20
2018-12-27T17:02:07.869Z,4.19
2018-12-27T17:04:37.343Z,4.30
2018-12-27T17:07:06.776Z,4.32
2018-12-27T17:09:36.363Z,4.26
2018-12-27T17:12:05.951Z,4.23
2018-12-27T17:14:35.548Z,4.09
2018-12-27T17:17:04.930Z,4.05
2018-12-27T17:19:34.516Z,4.05
2018-12-27T17:22:04.034Z,4.06
2018-12-27T17:24:33.523Z,4.07
2018-12-27T17:27:03.008Z,4.11
2018-12-27T17:29:32.503Z,4.11
2018-12-27T17:32:01.959Z,4.16
2018-12-27T17:34:31.447Z,4.14
2018-12-27T17:37:00.953Z,4.09
2018-12-27T17:39:30.467Z,4.06
2018-12-27T17:41:59.893Z,4.01
2018-12-27T17:44:29.375Z,4.02
2018-12-27T17:46:58.979Z,4.03
2018-12-27T17:49:28.577Z,4.02
2018-12-27T17:51:58.109Z,3.98
2018-12-27T17:54:27.755Z,3.95
2018-12-27T17:56:57.457Z,3.94
2018-12-27T17:59:26.874Z,3.88
2018-12-27T18:01:56.437Z,3.80
2018-12-27T18:04:25.952Z,3.77
2018-12-27T18:06:55.596Z,3.77
2018-12-27T18:09:25.015Z,3.76
2018-12-27T18:11:54.497Z,3.77
2018-12-27T18:14:23.995Z,3.76
2018-12-27T18:16:53.453Z,3.80
2018-12-27T18:19:22.852Z,3.78
2018-12-27T18:21:52.293Z,3.67
2018-12-27T18:24:21.790Z,3.66
2018-12-27T18:26:51.302Z,3.62
2018-12-27T18:29:20.809Z,3.67
2018-12-27T18:31:50.220Z,3.59
2018-12-27T18:34:19.720Z,3.53
2018-12-27T18:36:49.276Z,3.58
2018-12-27T18:39:18.674Z,3.59
2018-12-27T18:41:48.176Z,3.59
2018-12-27T18:44:17.757Z,3.62
2018-12-27T18:46:47.185Z,3.57
2018-12-27T18:49:20.600Z,3.57
2018-12-27T18:51:47.997Z,3.57
2018-12-27T18:54:17.526Z,3.54
2018-12-27T18:56:46.943Z,3.55
2018-12-27T18:59:16.430Z,3.50
2018-12-27T19:01:46.133Z,3.50
2018-12-27T19:04:15.525Z,3.47
2018-12-27T19:06:44.991Z,3.41
2018-12-27T19:09:14.490Z,3.50
2018-12-27T19:12:19.785Z,3.42
2018-12-27T19:14:49.636Z,3.33
2018-12-27T19:17:27.205Z,3.18
2018-12-27T19:19:56.759Z,3.14
2018-12-27T19:23:06.348Z,3.01
2018-12-27T19:25:35.786Z,2.97
2018-12-27T19:28:05.189Z,2.90
2018-12-27T19:30:34.843Z,2.94
2018-12-27T19:33:04.347Z,2.94
2018-12-27T19:35:33.851Z,2.97
2018-12-27T19:38:03.271Z,2.93
2018-12-27T19:40:32.886Z,3.01
2018-12-27T19:43:02.472Z,3.05
2018-12-27T19:45:31.940Z,3.04
2018-12-27T19:48:01.390Z,3.01
2018-12-27T19:50:31.211Z,3.05
2018-12-27T19:53:01.013Z,3.01
2018-12-27T19:55:30.885Z,3.03
2018-12-27T19:58:00.897Z,3.02
2018-12-27T20:00:31.338Z,3.01
2018-12-27T20:03:00.815Z,3.04
2018-12-27T20:05:30.254Z,3.05
2018-12-27T20:08:00.061Z,2.98
2018-12-27T20:10:29.614Z,2.95
2018-12-27T20:12:59.060Z,3.10
2018-12-27T20:15:28.764Z,3.02
2018-12-27T20:17:58.268Z,3.02
2018-12-27T20:20:27.756Z,2.95
2018-12-27T20:22:57.157Z,3.06
2018-12-27T20:25:26.658Z,3.05
2018-12-27T20:27:56.138Z,3.01
2018-12-27T20:30:25.563Z,3.12
2018-12-27T20:32:55.083Z,3.08
2018-12-27T20:35:24.677Z,3.19
2018-12-27T20:37:54.251Z,3.16
2018-12-27T20:40:23.684Z,3.13
2018-12-27T20:43:05.979Z,3.15
2018-12-27T20:45:35.463Z,3.18
2018-12-27T20:48:05.233Z,3.25
2018-12-27T20:50:34.712Z,3.21
2018-12-27T20:53:04.084Z,3.22
2018-12-27T20:55:33.691Z,3.32
2018-12-27T20:58:03.252Z,3.39
2018-12-27T21:00:32.820Z,3.32
2018-12-27T21:03:02.506Z,3.41
2018-12-27T21:05:32.031Z,3.42
2018-12-27T21:08:01.622Z,3.32
2018-12-27T21:10:31.170Z,3.26
2018-12-27T21:13:00.729Z,3.25
2018-12-27T21:15:30.349Z,3.20
2018-12-27T21:17:59.938Z,3.27
2018-12-27T21:20:29.519Z,3.21
2018-12-27T21:22:58.957Z,3.09
2018-12-27T21:25:28.678Z,3.12
2018-12-27T21:27:58.522Z,3.09
2018-12-27T21:30:28.181Z,3.02
2018-12-27T21:32:57.768Z,2.96
2018-12-27T21:35:27.665Z,2.88
2018-12-27T21:37:57.244Z,2.91
2018-12-27T21:40:27.243Z,2.84
2018-12-27T21:42:56.953Z,2.80
2018-12-27T21:45:26.405Z,2.72
2018-12-27T21:47:55.824Z,2.71
2018-12-27T21:50:25.380Z,2.68
2018-12-27T21:52:54.972Z,2.65
2018-12-27T21:55:24.414Z,2.60
2018-12-27T21:57:53.796Z,2.52
2018-12-27T22:00:23.517Z,2.49
2018-12-27T22:02:53.081Z,2.39
2018-12-27T22:05:22.733Z,2.38
2018-12-27T22:07:52.300Z,2.36
2018-12-27T22:10:22.018Z,2.32
2018-12-27T22:12:51.718Z,2.26
2018-12-27T22:15:21.230Z,2.22
2018-12-27T22:17:50.651Z,2.12
2018-12-27T22:20:20.317Z,2.07
2018-12-27T22:22:49.930Z,1.99
2018-12-27T22:25:19.442Z,1.97
2018-12-27T22:27:48.862Z,1.92
2018-12-27T22:30:18.608Z,1.84
2018-12-27T22:32:48.228Z,1.81
2018-12-27T22:35:17.704Z,1.87
2018-12-27T22:37:47.222Z,1.88
2018-12-27T22:40:16.818Z,1.89
2018-12-27T22:42:46.598Z,1.84
2018-12-27T22:45:16.516Z,1.86
2018-12-27T22:47:46.231Z,1.87
2018-12-27T22:50:15.846Z,1.83
2018-12-27T22:52:45.293Z,1.80
2018-12-27T22:55:14.816Z,1.83
2018-12-27T22:57:44.448Z,1.85
2018-12-27T23:00:21.651Z,1.87
2018-12-27T23:02:51.235Z,1.91
2018-12-27T23:05:20.776Z,1.94
2018-12-27T23:07:50.283Z,1.90
2018-12-27T23:10:19.743Z,1.86
2018-12-27T23:12:49.190Z,1.80
2018-12-27T23:15:18.911Z,1.75
2018-12-27T23:17:48.540Z,1.71
2018-12-27T23:20:18.108Z,1.64
2018-12-27T23:22:47.583Z,1.57
2018-12-27T23:25:17.263Z,1.55
2018-12-27T23:27:46.934Z,1.46
2018-12-27T23:30:16.444Z,1.40
2018-12-27T23:32:45.918Z,1.35
2018-12-27T23:35:15.382Z,1.31
2018-12-27T23:37:44.872Z,1.25
2018-12-27T23:40:14.429Z,1.16
2018-12-27T23:42:43.874Z,1.12
2018-12-27T23:45:13.539Z,1.07
2018-12-27T23:47:43.052Z,1.06
2018-12-27T23:50:12.661Z,1.01
2018-12-27T23:52:42.079Z,0.95
2018-12-27T23:55:11.668Z,0.89
2018-12-27T23:57:41.307Z,0.91
